DAL452 KSEA-KDFW
Flight info
| Callsign | DAL452 |
|---|---|
| Flight time | N/A |
| Altitude | 41000 |
| Route | SUMMA2 SUMMA J54 BKE HLE KD60S KD45W PNH MDANO VKTRY2 |
| Aircraft | A359/H-SDE2E3GHIJ3J4J5LM1ORWXY/LB1D1 |
Departure
| Time | 2026-05-04 06:14 |
|---|---|
| Airport | Seattle–Tacoma International Airport (KSEA) |
Arrival
| Time | N/A |
|---|---|
| Airport | Dallas Fort Worth International Airport (KDFW) |
| Time | Latitude | Longitude | Altitude | Speed | Heading |
|---|---|---|---|---|---|
| 2026-05-04 05:36 | 47.44123 | -122.30297 | 390 ft | 0 kts | 292° |
| 2026-05-04 06:05 | 47.44123 | -122.30298 | 390 ft | 4 kts | 267° |
| 2026-05-04 06:05 | 47.44124 | -122.30285 | 393 ft | 3 kts | 263° |
| 2026-05-04 06:06 | 47.44128 | -122.30258 | 386 ft | 4 kts | 223° |
| 2026-05-04 06:06 | 47.44141 | -122.30248 | 390 ft | 4 kts | 177° |
| 2026-05-04 06:06 | 47.44162 | -122.30250 | 390 ft | 0 kts | 175° |
| 2026-05-04 06:09 | 47.44158 | -122.30250 | 390 ft | 3 kts | 175° |
| 2026-05-04 06:09 | 47.44108 | -122.30244 | 390 ft | 11 kts | 176° |
| 2026-05-04 06:11 | 47.43246 | -122.30575 | 390 ft | 31 kts | 196° |
| 2026-05-04 06:11 | 47.43171 | -122.30653 | 390 ft | 0 kts | 245° |
| 2026-05-04 06:13 | 47.43351 | -122.30805 | 390 ft | 21 kts | 359° |
| 2026-05-04 06:14 | 47.49037 | -122.30897 | 2741 ft | 189 kts | 359° |
| 2026-05-04 06:14 | 47.50398 | -122.30917 | 3182 ft | 204 kts | 359° |
| 2026-05-04 06:15 | 47.51856 | -122.30932 | 3735 ft | 216 kts | 359° |
| 2026-05-04 06:15 | 47.53456 | -122.30945 | 4095 ft | 242 kts | 360° |
| 2026-05-04 06:15 | 47.55221 | -122.30958 | 4520 ft | 264 kts | 359° |
| 2026-05-04 06:15 | 47.57096 | -122.30930 | 5198 ft | 274 kts | 3° |
| 2026-05-04 06:16 | 47.58985 | -122.30373 | 5970 ft | 282 kts | 20° |
| 2026-05-04 06:16 | 47.60676 | -122.28901 | 6801 ft | 288 kts | 40° |
| 2026-05-04 06:16 | 47.61955 | -122.26587 | 7605 ft | 296 kts | 60° |
| 2026-05-04 06:16 | 47.62611 | -122.23663 | 8508 ft | 303 kts | 82° |
| 2026-05-04 06:17 | 47.62517 | -122.20535 | 9465 ft | 308 kts | 103° |
| 2026-05-04 06:17 | 47.61651 | -122.17615 | 10364 ft | 313 kts | 124° |
| 2026-05-04 06:17 | 47.60089 | -122.15334 | 11193 ft | 320 kts | 146° |
| 2026-05-04 06:17 | 47.58049 | -122.14074 | 12018 ft | 326 kts | 168° |
| 2026-05-04 06:18 | 47.55762 | -122.14058 | 12862 ft | 332 kts | 191° |
| 2026-05-04 06:18 | 47.53519 | -122.14977 | 13737 ft | 337 kts | 198° |
| 2026-05-04 06:18 | 47.51266 | -122.16064 | 14505 ft | 342 kts | 198° |
| 2026-05-04 06:20 | 47.34587 | -122.23186 | 19560 ft | 374 kts | 178° |
| 2026-05-04 06:20 | 47.32032 | -122.22635 | 20247 ft | 377 kts | 166° |
| 2026-05-04 06:21 | 47.21564 | -122.18921 | 22992 ft | 395 kts | 165° |
| 2026-05-04 06:21 | 47.18874 | -122.17999 | 23638 ft | 400 kts | 165° |
| 2026-05-04 06:22 | 47.16175 | -122.17078 | 24209 ft | 404 kts | 165° |
| 2026-05-04 06:22 | 47.13431 | -122.16146 | 24802 ft | 407 kts | 165° |
| 2026-05-04 06:25 | 46.75738 | -122.03481 | 32100 ft | 435 kts | 162° |
| 2026-05-04 06:25 | 46.72824 | -122.02510 | 32605 ft | 435 kts | 162° |
| 2026-05-04 06:26 | 46.69884 | -122.01475 | 33127 ft | 432 kts | 158° |
| 2026-05-04 06:26 | 46.67052 | -122.00040 | 33623 ft | 425 kts | 149° |
| 2026-05-04 06:26 | 46.64442 | -121.98100 | 34084 ft | 417 kts | 141° |
| 2026-05-04 06:26 | 46.62116 | -121.95718 | 34459 ft | 409 kts | 133° |
| 2026-05-04 06:27 | 46.55380 | -121.82869 | 35391 ft | 405 kts | 112° |
| 2026-05-04 06:28 | 46.53976 | -121.79265 | 35568 ft | 411 kts | 112° |
| 2026-05-04 06:28 | 46.52576 | -121.75651 | 35696 ft | 417 kts | 112° |
| 2026-05-04 06:28 | 46.51138 | -121.71954 | 35854 ft | 423 kts | 113° |
| 2026-05-04 06:28 | 46.49665 | -121.68215 | 36014 ft | 429 kts | 113° |
| 2026-05-04 06:29 | 46.48164 | -121.64426 | 36171 ft | 434 kts | 113° |
| 2026-05-04 06:29 | 46.46661 | -121.60650 | 36338 ft | 440 kts | 113° |
| 2026-05-04 06:29 | 46.45118 | -121.56788 | 36511 ft | 446 kts | 114° |
| 2026-05-04 06:29 | 46.43548 | -121.52868 | 36685 ft | 451 kts | 114° |
| 2026-05-04 06:30 | 46.41961 | -121.48914 | 36832 ft | 456 kts | 114° |
| 2026-05-04 06:30 | 46.40369 | -121.44951 | 37058 ft | 460 kts | 114° |
| 2026-05-04 06:30 | 46.38746 | -121.40921 | 37292 ft | 463 kts | 114° |
| 2026-05-04 06:30 | 46.37109 | -121.36860 | 37435 ft | 468 kts | 114° |
| 2026-05-04 06:31 | 46.35474 | -121.32807 | 37562 ft | 472 kts | 114° |
| 2026-05-04 06:31 | 46.33803 | -121.28668 | 37688 ft | 476 kts | 114° |
| 2026-05-04 06:31 | 46.32118 | -121.24501 | 37822 ft | 480 kts | 114° |
| 2026-05-04 06:31 | 46.30439 | -121.20355 | 37964 ft | 484 kts | 114° |
| 2026-05-04 06:33 | 46.17159 | -120.87825 | 38543 ft | 493 kts | 114° |
| 2026-05-04 06:34 | 46.14841 | -120.82178 | 38723 ft | 492 kts | 115° |
| 2026-05-04 06:34 | 46.13085 | -120.77909 | 38858 ft | 492 kts | 115° |
| 2026-05-04 06:34 | 46.10168 | -120.70834 | 39053 ft | 493 kts | 115° |
| 2026-05-04 06:35 | 46.08411 | -120.66579 | 39174 ft | 493 kts | 115° |
| 2026-05-04 06:36 | 45.96057 | -120.36881 | 39922 ft | 496 kts | 116° |
| 2026-05-04 06:37 | 45.92509 | -120.28409 | 40010 ft | 498 kts | 116° |
| 2026-05-04 06:37 | 45.88927 | -120.19853 | 40048 ft | 499 kts | 116° |
| 2026-05-04 06:38 | 45.85348 | -120.11342 | 40056 ft | 501 kts | 116° |
| 2026-05-04 06:40 | 45.70866 | -119.77210 | 40069 ft | 501 kts | 117° |
| 2026-05-04 06:40 | 45.67241 | -119.68729 | 40084 ft | 501 kts | 117° |
| 2026-05-04 06:41 | 45.63591 | -119.60213 | 40094 ft | 501 kts | 117° |
| 2026-05-04 06:41 | 45.59956 | -119.51758 | 40103 ft | 501 kts | 118° |
| 2026-05-04 06:42 | 45.56299 | -119.43276 | 40110 ft | 501 kts | 118° |
| 2026-05-04 06:44 | 45.41625 | -119.09508 | 40156 ft | 501 kts | 118° |
| 2026-05-04 06:44 | 45.37947 | -119.01104 | 40166 ft | 502 kts | 119° |
| 2026-05-04 06:45 | 45.34258 | -118.92703 | 40175 ft | 502 kts | 119° |
| 2026-05-04 06:45 | 45.30534 | -118.84246 | 40189 ft | 503 kts | 119° |
| 2026-05-04 06:46 | 45.26829 | -118.75859 | 40203 ft | 503 kts | 119° |
| 2026-05-04 06:46 | 45.23118 | -118.67484 | 40214 ft | 503 kts | 120° |
| 2026-05-04 06:48 | 45.08149 | -118.33949 | 40230 ft | 503 kts | 120° |
| 2026-05-04 06:50 | 44.93125 | -118.00681 | 40241 ft | 503 kts | 120° |
| 2026-05-04 06:51 | 44.89343 | -117.92365 | 40244 ft | 503 kts | 121° |
| 2026-05-04 06:51 | 44.85547 | -117.84046 | 40247 ft | 503 kts | 121° |
| 2026-05-04 06:52 | 44.81846 | -117.75747 | 40249 ft | 502 kts | 118° |
| 2026-05-04 06:52 | 44.78459 | -117.67137 | 40251 ft | 502 kts | 116° |
| 2026-05-04 06:53 | 44.75115 | -117.58499 | 40245 ft | 502 kts | 117° |
| 2026-05-04 06:53 | 44.71706 | -117.49900 | 40235 ft | 503 kts | 117° |
| 2026-05-04 06:54 | 44.68279 | -117.41384 | 40226 ft | 503 kts | 117° |
| 2026-05-04 06:54 | 44.64817 | -117.32829 | 40213 ft | 503 kts | 117° |
| 2026-05-04 06:55 | 44.61366 | -117.24323 | 40213 ft | 503 kts | 117° |
| 2026-05-04 06:55 | 44.57893 | -117.15784 | 40211 ft | 503 kts | 117° |
| 2026-05-04 06:57 | 44.43952 | -116.81750 | 40193 ft | 504 kts | 118° |
| 2026-05-04 06:58 | 44.40457 | -116.73282 | 40185 ft | 505 kts | 118° |
| 2026-05-04 06:58 | 44.36936 | -116.64773 | 40185 ft | 505 kts | 118° |
| 2026-05-04 06:59 | 44.33591 | -116.56141 | 40169 ft | 502 kts | 108° |
| 2026-05-04 06:59 | 44.32798 | -116.51422 | 40178 ft | 498 kts | 93° |
| 2026-05-04 06:59 | 44.32904 | -116.46618 | 40183 ft | 494 kts | 78° |
| 2026-05-04 07:01 | 44.50961 | -116.33566 | 40201 ft | 487 kts | 334° |
| 2026-05-04 07:01 | 44.53764 | -116.36233 | 40203 ft | 489 kts | 319° |
| 2026-05-04 07:02 | 44.55999 | -116.39868 | 40211 ft | 493 kts | 304° |
| 2026-05-04 07:02 | 44.57776 | -116.43990 | 40208 ft | 494 kts | 301° |
| 2026-05-04 07:02 | 44.60785 | -116.52633 | 40210 ft | 497 kts | 291° |
| 2026-05-04 07:03 | 44.62126 | -116.62205 | 40212 ft | 503 kts | 273° |
| 2026-05-04 07:03 | 44.61178 | -116.71902 | 40202 ft | 508 kts | 253° |
| 2026-05-04 07:04 | 44.57925 | -116.80718 | 40202 ft | 512 kts | 233° |
| 2026-05-04 07:04 | 44.52723 | -116.87547 | 40196 ft | 516 kts | 213° |
| 2026-05-04 07:05 | 44.46208 | -116.91549 | 40189 ft | 516 kts | 193° |
| 2026-05-04 07:05 | 44.39063 | -116.92289 | 40181 ft | 515 kts | 173° |
| 2026-05-04 07:06 | 44.32227 | -116.89703 | 40181 ft | 512 kts | 153° |
| 2026-05-04 07:06 | 44.29127 | -116.87242 | 40181 ft | 510 kts | 143° |